MSC Annamaria — H3HN — position and weather

sailwx.info

Track history (hours):
 
Tides and Currents Weather Stations Pressure Air Temp Water Temp Dewpoint Dewpoint Depression Visibility Wind Speed Wind Dir Waves Ship Positions

MSC Annamaria

Last reported at 2016-Aug-25 04:04 UTC. Time now 2016-Aug-26 01:20 UTC.
Position N 36°04' E 033°52'.

Length 188 m; draft 7.6 m.

Type: Ship (hazmat cat A). MMSI: 353852000.

Date/timePositionNaut miles runAvg speedWind from/ knotsBaromVisibWave heightAir tempDewpointWater temp
2016-Aug-25 04:04N 36°04' E 033°52'2414.9
2016-Aug-25 02:27N 36°21' E 034°13'1514.3
2016-Aug-25 01:26N 36°32' E 034°25'64 1.3
2016-Aug-23 01:08N 36°00' E 035°33'712.1
2016-Aug-23 00:33N 35°53' E 035°31'4012.8
2016-Aug-22 21:24N 35°14' E 035°23'1312.7
2016-Aug-22 20:22N 35°00' E 035°21'1312.9
2016-Aug-22 19:22N 34°48' E 035°20'1112.9
2016-Aug-22 18:33N 34°37' E 035°19'1312.6
2016-Aug-22 17:33N 34°25' E 035°17'1212.4
2016-Aug-22 16:33N 34°12' E 035°15'1312.4
2016-Aug-22 15:31N 33°59' E 035°14'9 9.2
2016-Aug-22 14:33N 33°55' E 035°23'7 7.2
2016-Aug-22 13:32N 33°55' E 035°32'0 0.0
2016-Aug-22 11:10N 33°55' E 035°32'0 0.0
2016-Aug-21 21:30N 33°55' E 035°32'0 0.0
2016-Aug-21 20:22N 33°55' E 035°32'3 0.4
2016-Aug-21 13:27N 33°57' E 035°34'1 0.2
2016-Aug-21 10:30N 33°57' E 035°34'0 0.0
2016-Aug-21 08:23N 33°57' E 035°34'0 0.0
2016-Aug-21 07:11N 33°57' E 035°34'0 0.0
2016-Aug-21 06:32N 33°57' E 035°34'0 0.0
2016-Aug-21 05:28N 33°57' E 035°34'0 0.0
2016-Aug-21 04:16N 33°57' E 035°34'0 0.1
2016-Aug-21 03:27N 33°57' E 035°34'0 0.1
2016-Aug-21 02:31N 33°57' E 035°34'0 0.1
2016-Aug-21 01:24N 33°57' E 035°34'0 0.2
2016-Aug-21 00:29N 33°57' E 035°34'0 0.1
2016-Aug-20 23:34N 33°57' E 035°34'0 0.2
2016-Aug-20 22:28N 33°57' E 035°34'0 0.0
2016-Aug-20 21:27N 33°57' E 035°34'0 0.0
2016-Aug-20 18:25N 33°57' E 035°34'0 0.0
2016-Aug-20 17:27N 33°57' E 035°34'0 0.0
2016-Aug-20 16:31N 33°57' E 035°34'0 0.0
2016-Aug-20 15:29N 33°57' E 035°34'0 0.0
2016-Aug-20 14:32N 33°57' E 035°34'0 0.0
2016-Aug-20 13:34N 33°57' E 035°34'0 0.0
2016-Aug-20 12:31N 33°57' E 035°34'0 0.0
2016-Aug-20 11:27N 33°57' E 035°34'0 0.0
2016-Aug-20 09:25N 33°57' E 035°34'0 0.0
2016-Aug-20 08:33N 33°57' E 035°34'0 0.0
2016-Aug-20 06:06N 33°57' E 035°34'0 0.0
2016-Aug-20 05:33N 33°57' E 035°34'0 0.0
2016-Aug-20 04:24N 33°57' E 035°34'0 0.0
2016-Aug-20 02:04N 33°57' E 035°34'0 0.1
2016-Aug-20 01:32N 33°57' E 035°34'0 0.1
2016-Aug-20 00:30N 33°57' E 035°34'0 0.0
2016-Aug-19 21:29N 33°57' E 035°34'0 0.2
2016-Aug-19 20:33N 33°57' E 035°34'5 5.4
2016-Aug-19 19:34N 33°55' E 035°28'1212.2
2016-Aug-19 18:33N 33°55' E 035°13'1313.2
2016-Aug-19 17:33N 33°49' E 034°59'1313.1
2016-Aug-19 16:33N 33°43' E 034°45'1313.2
2016-Aug-19 15:34N 33°37' E 034°31'1313.1
2016-Aug-19 14:34N 33°31' E 034°17'1313.3
2016-Aug-19 13:34N 33°25' E 034°03'1313.4
2016-Aug-19 12:33N 33°19' E 033°49'1313.2
2016-Aug-19 11:33N 33°13' E 033°34'1313.2
2016-Aug-19 10:33N 33°07' E 033°20'1313.5
2016-Aug-19 09:34N 33°01' E 033°06'1413.5
2016-Aug-19 08:33N 32°55' E 032°52'1413.6
2016-Aug-19 07:33N 32°48' E 032°37'1413.9
2016-Aug-19 06:33N 32°42' E 032°23'1414.0
2016-Aug-19 05:33N 32°36' E 032°08'1413.8
2016-Aug-19 04:33N 32°30' E 031°53'1413.7
2016-Aug-19 03:33N 32°23' E 031°39'1413.5
2016-Aug-19 02:33N 32°17' E 031°25'1413.6
2016-Aug-19 01:33N 32°11' E 031°10'1413.9
2016-Aug-19 00:33N 32°05' E 030°56'1414.2
2016-Aug-18 23:33N 31°58' E 030°41'1414.0
2016-Aug-18 22:33N 31°51' E 030°26'1413.8
2016-Aug-18 21:33N 31°44' E 030°13'2013.3
2016-Aug-18 20:03N 31°33' E 029°54'713.1
2016-Aug-18 19:30N 31°28' E 029°47'1313.3
2016-Aug-18 18:33N 31°15' E 029°47'6 0.9
2016-Aug-18 12:04N 31°11' E 029°52'236 5.8
2016-Aug-16 19:34N 34°16' E 032°48'1212.4
2016-Aug-16 18:34N 34°25' E 032°58'1111.4
2016-Aug-16 17:34N 34°35' E 033°04'5 4.6
2016-Aug-16 16:32N 34°39' E 033°01'0 0.0
2016-Aug-16 15:31N 34°39' E 033°01'0 0.0
2016-Aug-16 14:32N 34°39' E 033°01'0 0.0
2016-Aug-16 13:26N 34°39' E 033°01'0 0.0
2016-Aug-16 12:33N 34°39' E 033°01'0 0.0
2016-Aug-16 11:33N 34°39' E 033°01'0 0.0
2016-Aug-16 10:33N 34°39' E 033°01'0 0.0
2016-Aug-16 09:32N 34°39' E 033°01'0 0.0
2016-Aug-16 08:32N 34°39' E 033°01'0 0.2
2016-Aug-16 07:33N 34°39' E 033°01'14 4.5
2016-Aug-16 04:33N 34°34' E 032°46'  
Track history (hours):
 
Tides and Currents Weather Stations Pressure Air Temp Water Temp Dewpoint Dewpoint Depression Visibility Wind Speed Wind Dir Waves Ship Positions

MSC Annamaria

Last reported at 2016-Aug-25 04:04 UTC. Time now 2016-Aug-26 01:20 UTC.
Position N 36°04' E 033°52'.

Length 188 m; draft 7.6 m.

Type: Ship (hazmat cat A). MMSI: 353852000.

Date/timePositionNaut miles runAvg speedWind from/ knotsBaromVisibWave heightAir tempDewpointWater temp
2016-Aug-25 04:04N 36°04' E 033°52'2414.9
2016-Aug-25 02:27N 36°21' E 034°13'1514.3
2016-Aug-25 01:26N 36°32' E 034°25'64 1.3
2016-Aug-23 01:08N 36°00' E 035°33'712.1
2016-Aug-23 00:33N 35°53' E 035°31'4012.8
2016-Aug-22 21:24N 35°14' E 035°23'1312.7
2016-Aug-22 20:22N 35°00' E 035°21'1312.9
2016-Aug-22 19:22N 34°48' E 035°20'1112.9
2016-Aug-22 18:33N 34°37' E 035°19'1312.6
2016-Aug-22 17:33N 34°25' E 035°17'1212.4
2016-Aug-22 16:33N 34°12' E 035°15'1312.4
2016-Aug-22 15:31N 33°59' E 035°14'9 9.2
2016-Aug-22 14:33N 33°55' E 035°23'7 7.2
2016-Aug-22 13:32N 33°55' E 035°32'0 0.0
2016-Aug-22 11:10N 33°55' E 035°32'0 0.0
2016-Aug-21 21:30N 33°55' E 035°32'0 0.0
2016-Aug-21 20:22N 33°55' E 035°32'3 0.4
2016-Aug-21 13:27N 33°57' E 035°34'1 0.2
2016-Aug-21 10:30N 33°57' E 035°34'0 0.0
2016-Aug-21 08:23N 33°57' E 035°34'0 0.0
2016-Aug-21 07:11N 33°57' E 035°34'0 0.0
2016-Aug-21 06:32N 33°57' E 035°34'0 0.0
2016-Aug-21 05:28N 33°57' E 035°34'0 0.0
2016-Aug-21 04:16N 33°57' E 035°34'0 0.1
2016-Aug-21 03:27N 33°57' E 035°34'0 0.1
2016-Aug-21 02:31N 33°57' E 035°34'0 0.1
2016-Aug-21 01:24N 33°57' E 035°34'0 0.2
2016-Aug-21 00:29N 33°57' E 035°34'0 0.1
2016-Aug-20 23:34N 33°57' E 035°34'0 0.2
2016-Aug-20 22:28N 33°57' E 035°34'0 0.0
2016-Aug-20 21:27N 33°57' E 035°34'0 0.0
2016-Aug-20 18:25N 33°57' E 035°34'0 0.0
2016-Aug-20 17:27N 33°57' E 035°34'0 0.0
2016-Aug-20 16:31N 33°57' E 035°34'0 0.0
2016-Aug-20 15:29N 33°57' E 035°34'0 0.0
2016-Aug-20 14:32N 33°57' E 035°34'0 0.0
2016-Aug-20 13:34N 33°57' E 035°34'0 0.0
2016-Aug-20 12:31N 33°57' E 035°34'0 0.0
2016-Aug-20 11:27N 33°57' E 035°34'0 0.0
2016-Aug-20 09:25N 33°57' E 035°34'0 0.0
2016-Aug-20 08:33N 33°57' E 035°34'0 0.0
2016-Aug-20 06:06N 33°57' E 035°34'0 0.0
2016-Aug-20 05:33N 33°57' E 035°34'0 0.0
2016-Aug-20 04:24N 33°57' E 035°34'0 0.0
2016-Aug-20 02:04N 33°57' E 035°34'0 0.1
2016-Aug-20 01:32N 33°57' E 035°34'0 0.1
2016-Aug-20 00:30N 33°57' E 035°34'0 0.0
2016-Aug-19 21:29N 33°57' E 035°34'0 0.2
2016-Aug-19 20:33N 33°57' E 035°34'5 5.4
2016-Aug-19 19:34N 33°55' E 035°28'1212.2
2016-Aug-19 18:33N 33°55' E 035°13'1313.2
2016-Aug-19 17:33N 33°49' E 034°59'1313.1
2016-Aug-19 16:33N 33°43' E 034°45'1313.2
2016-Aug-19 15:34N 33°37' E 034°31'1313.1
2016-Aug-19 14:34N 33°31' E 034°17'1313.3
2016-Aug-19 13:34N 33°25' E 034°03'1313.4
2016-Aug-19 12:33N 33°19' E 033°49'1313.2
2016-Aug-19 11:33N 33°13' E 033°34'1313.2
2016-Aug-19 10:33N 33°07' E 033°20'1313.5
2016-Aug-19 09:34N 33°01' E 033°06'1413.5
2016-Aug-19 08:33N 32°55' E 032°52'1413.6
2016-Aug-19 07:33N 32°48' E 032°37'1413.9
2016-Aug-19 06:33N 32°42' E 032°23'1414.0
2016-Aug-19 05:33N 32°36' E 032°08'1413.8
2016-Aug-19 04:33N 32°30' E 031°53'1413.7
2016-Aug-19 03:33N 32°23' E 031°39'1413.5
2016-Aug-19 02:33N 32°17' E 031°25'1413.6
2016-Aug-19 01:33N 32°11' E 031°10'1413.9
2016-Aug-19 00:33N 32°05' E 030°56'1414.2
2016-Aug-18 23:33N 31°58' E 030°41'1414.0
2016-Aug-18 22:33N 31°51' E 030°26'1413.8
2016-Aug-18 21:33N 31°44' E 030°13'2013.3
2016-Aug-18 20:03N 31°33' E 029°54'713.1
2016-Aug-18 19:30N 31°28' E 029°47'1313.3
2016-Aug-18 18:33N 31°15' E 029°47'6 0.9
2016-Aug-18 12:04N 31°11' E 029°52'236 5.8
2016-Aug-16 19:34N 34°16' E 032°48'1212.4
2016-Aug-16 18:34N 34°25' E 032°58'1111.4
2016-Aug-16 17:34N 34°35' E 033°04'5 4.6
2016-Aug-16 16:32N 34°39' E 033°01'0 0.0
2016-Aug-16 15:31N 34°39' E 033°01'0 0.0
2016-Aug-16 14:32N 34°39' E 033°01'0 0.0
2016-Aug-16 13:26N 34°39' E 033°01'0 0.0
2016-Aug-16 12:33N 34°39' E 033°01'0 0.0
2016-Aug-16 11:33N 34°39' E 033°01'0 0.0
2016-Aug-16 10:33N 34°39' E 033°01'0 0.0
2016-Aug-16 09:32N 34°39' E 033°01'0 0.0
2016-Aug-16 08:32N 34°39' E 033°01'0 0.2
2016-Aug-16 07:33N 34°39' E 033°01'14 4.5
2016-Aug-16 04:33N 34°34' E 032°46'  

Dump ship's entire track history